Check out our new BloomSky Weather System.

Active alerts

Houston, TX
  Details for Houston, TX Dense Fog Advisory


Thunder radar  blitzortung!


Rain radar more information rain snow radar


Visit our other weather sites:

Template documentation
and downloads

And another site



Weather Underground History page Text

Daily Summary for April 13, 2017 Units:  English    Metric   Both
« Previous Day
Next Day »
Daily Weekly Monthly Yearly Custom
  High: Low: Average:
Temperature: 83.3 °F 65.7 °F 72.8 °F
Dew Point: 70.9 °F 57.7 °F 64.9 °F
Humidity: 99 % 43 % 79 %
Wind Speed: 11.0 mph 0.0 mph 2.3 mph
Wind Gust: 16.0 mph - -
Wind:- - ESE
Pressure: 30.21 in 30.07 in -
Precipitation: 0.00 in    
Historical Graphs
 
 
Tabular Data for April 13, 2017
Time Temperature Dew Point Pressure Wind Wind Speed Wind Gust Humidity Rainfall Rate (Hourly)
00:04 67.8 °F 66.6 °F 30.15 in Calm   1.0 mph 96 % 0.00 in
00:09 67.5 °F 66.2 °F 30.16 in Calm   1.0 mph 96 % 0.00 in
00:14 67.3 °F 66.0 °F 30.16 in Calm   1.0 mph 96 % 0.00 in
00:19 67.3 °F 66.4 °F 30.15 in Calm   1.0 mph 97 % 0.00 in
00:24 67.1 °F 65.8 °F 30.16 in Calm   1.0 mph 96 % 0.00 in
00:29 66.9 °F 66.0 °F 30.16 in Calm     97 % 0.00 in
00:34 66.9 °F 66.0 °F 30.16 in Calm     97 % 0.00 in
00:39 66.9 °F 66.0 °F 30.16 in Calm     97 % 0.00 in
00:44 67.1 °F 66.2 °F 30.16 in Calm     97 % 0.00 in
00:49 67.3 °F 66.4 °F 30.15 in Calm     97 % 0.00 in
00:54 67.5 °F 66.6 °F 30.15 in Calm     97 % 0.00 in
00:59 67.6 °F 66.7 °F 30.15 in Calm   1.0 mph 97 % 0.00 in
01:04 67.6 °F 66.7 °F 30.15 in Calm   1.0 mph 97 % 0.00 in
01:09 67.6 °F 66.7 °F 30.15 in Calm   1.0 mph 97 % 0.00 in
01:14 67.5 °F 66.6 °F 30.15 in Calm     97 % 0.00 in
01:19 67.3 °F 66.4 °F 30.15 in Calm     97 % 0.00 in
01:25 67.3 °F 66.4 °F 30.15 in Calm     97 % 0.00 in
01:30 67.1 °F 66.2 °F 30.15 in Calm     97 % 0.00 in
01:35 66.9 °F 66.0 °F 30.15 in Calm     97 % 0.00 in
01:40 66.7 °F 65.8 °F 30.14 in Calm     97 % 0.00 in
01:45 66.7 °F 65.8 °F 30.14 in Calm     97 % 0.00 in
01:50 66.7 °F 65.8 °F 30.14 in Calm     97 % 0.00 in
01:55 66.7 °F 66.2 °F 30.14 in Calm     98 % 0.00 in
02:00 66.7 °F 66.2 °F 30.14 in Calm     98 % 0.00 in
02:05 66.6 °F 66.0 °F 30.14 in Calm     98 % 0.00 in
02:10 66.4 °F 65.8 °F 30.14 in Calm     98 % 0.00 in
02:15 66.4 °F 65.8 °F 30.14 in Calm     98 % 0.00 in
02:20 66.4 °F 65.8 °F 30.14 in Calm     98 % 0.00 in
02:25 66.2 °F 65.7 °F 30.14 in Calm     98 % 0.00 in
02:30 66.0 °F 65.5 °F 30.14 in Calm     98 % 0.00 in
02:35 65.8 °F 65.3 °F 30.14 in Calm     98 % 0.00 in
02:40 65.8 °F 65.3 °F 30.14 in Calm     98 % 0.00 in
02:45 65.8 °F 65.3 °F 30.14 in Calm     98 % 0.00 in
02:50 65.8 °F 65.3 °F 30.14 in Calm     98 % 0.00 in
02:55 65.8 °F 65.3 °F 30.14 in Calm     98 % 0.00 in
03:00 66.0 °F 65.5 °F 30.14 in Calm     98 % 0.00 in
03:05 66.2 °F 65.7 °F 30.14 in Calm     98 % 0.00 in
03:10 66.2 °F 65.7 °F 30.14 in Calm   1.0 mph 98 % 0.00 in
03:15 66.4 °F 65.8 °F 30.14 in Calm   1.0 mph 98 % 0.00 in
03:20 66.2 °F 65.7 °F 30.14 in Calm   1.0 mph 98 % 0.00 in
03:25 66.4 °F 65.8 °F 30.14 in Calm     98 % 0.00 in
03:30 66.2 °F 65.7 °F 30.14 in Calm     98 % 0.00 in
03:35 66.0 °F 65.5 °F 30.14 in Calm     98 % 0.00 in
03:40 66.0 °F 65.5 °F 30.15 in Calm     98 % 0.00 in
03:41 66.0 °F 65.5 °F 30.15 in Calm     98 % 0.00 in
03:46 66.0 °F 65.5 °F 30.15 in Calm     98 % 0.00 in
03:51 66.0 °F 65.5 °F 30.15 in Calm     98 % 0.00 in
03:56 66.2 °F 65.7 °F 30.15 in Calm     98 % 0.00 in
04:01 66.4 °F 66.0 °F 30.15 in Calm     99 % 0.00 in
04:06 66.4 °F 66.0 °F 30.15 in Calm   1.0 mph 99 % 0.00 in
04:11 66.4 °F 66.0 °F 30.15 in Calm   1.0 mph 99 % 0.00 in
04:16 66.4 °F 66.0 °F 30.14 in Calm   1.0 mph 99 % 0.00 in
04:21 66.4 °F 65.8 °F 30.14 in Calm   1.0 mph 98 % 0.00 in
04:26 66.2 °F 65.7 °F 30.15 in Calm   1.0 mph 98 % 0.00 in
04:31 66.2 °F 65.7 °F 30.14 in Calm     98 % 0.00 in
04:36 66.0 °F 65.5 °F 30.14 in Calm     98 % 0.00 in
04:41 66.0 °F 65.7 °F 30.14 in NNW 1.0 mph 1.0 mph 99 % 0.00 in
04:46 66.0 °F 65.7 °F 30.14 in Calm   1.0 mph 99 % 0.00 in
04:51 66.0 °F 65.7 °F 30.14 in Calm   1.0 mph 99 % 0.00 in
04:56 66.2 °F 65.8 °F 30.14 in Calm   1.0 mph 99 % 0.00 in
05:01 66.4 °F 66.0 °F 30.14 in Calm   1.0 mph 99 % 0.00 in
05:06 66.4 °F 66.0 °F 30.14 in Calm   1.0 mph 99 % 0.00 in
05:11 66.4 °F 66.0 °F 30.14 in North 1.0 mph 3.0 mph 99 % 0.00 in
05:16 66.4 °F 66.0 °F 30.14 in Calm   3.0 mph 99 % 0.00 in
05:21 66.4 °F 66.0 °F 30.13 in Calm   3.0 mph 99 % 0.00 in
05:26 66.4 °F 66.0 °F 30.13 in Calm   2.0 mph 99 % 0.00 in
05:31 66.4 °F 66.0 °F 30.13 in Calm   2.0 mph 99 % 0.00 in
05:36 66.4 °F 66.0 °F 30.13 in Calm   2.0 mph 99 % 0.00 in
05:41 66.2 °F 65.8 °F 30.12 in Calm   2.0 mph 99 % 0.00 in
05:46 66.2 °F 65.8 °F 30.12 in North 1.0 mph 2.0 mph 99 % 0.00 in
05:51 66.0 °F 65.7 °F 30.12 in Calm   3.0 mph 99 % 0.00 in
05:56 66.0 °F 65.7 °F 30.12 in Calm   3.0 mph 99 % 0.00 in
06:01 66.0 °F 65.7 °F 30.12 in East 3.0 mph 3.0 mph 99 % 0.00 in
06:06 66.0 °F 65.7 °F 30.12 in Calm   3.0 mph 99 % 0.00 in
06:11 66.0 °F 65.7 °F 30.13 in Calm   3.0 mph 99 % 0.00 in
06:16 66.0 °F 65.7 °F 30.13 in East 2.0 mph 3.0 mph 99 % 0.00 in
06:21 66.0 °F 65.7 °F 30.13 in Calm   2.0 mph 99 % 0.00 in
06:26 66.2 °F 65.8 °F 30.13 in Calm   2.0 mph 99 % 0.00 in
06:31 66.4 °F 66.0 °F 30.13 in ENE 1.0 mph 2.0 mph 99 % 0.00 in
06:36 66.4 °F 66.0 °F 30.13 in Calm   2.0 mph 99 % 0.00 in
06:41 66.6 °F 66.2 °F 30.13 in Calm   3.0 mph 99 % 0.00 in
06:46 66.6 °F 66.2 °F 30.14 in ESE 1.0 mph 4.0 mph 99 % 0.00 in
06:51 66.6 °F 66.2 °F 30.14 in Calm   4.0 mph 99 % 0.00 in
06:56 66.6 °F 66.2 °F 30.14 in Calm   4.0 mph 99 % 0.00 in
07:01 66.6 °F 66.2 °F 30.15 in Calm   4.0 mph 99 % 0.00 in
07:06 66.6 °F 66.2 °F 30.15 in Calm   3.0 mph 99 % 0.00 in
07:11 66.7 °F 66.4 °F 30.16 in Calm   3.0 mph 99 % 0.00 in
07:16 66.7 °F 66.4 °F 30.16 in Calm   3.0 mph 99 % 0.00 in
07:21 66.9 °F 66.6 °F 30.17 in ENE 1.0 mph 3.0 mph 99 % 0.00 in
07:26 66.9 °F 66.6 °F 30.17 in NE 1.0 mph 3.0 mph 99 % 0.00 in
07:31 67.1 °F 66.7 °F 30.17 in Calm   3.0 mph 99 % 0.00 in
07:36 67.3 °F 66.9 °F 30.17 in Calm   3.0 mph 99 % 0.00 in
07:42 67.3 °F 66.9 °F 30.17 in Calm   3.0 mph 99 % 0.00 in
07:47 67.5 °F 67.1 °F 30.17 in Calm   2.0 mph 99 % 0.00 in
07:52 67.5 °F 67.1 °F 30.17 in Calm   3.0 mph 99 % 0.00 in
07:57 67.6 °F 67.3 °F 30.17 in Calm   3.0 mph 99 % 0.00 in
08:02 67.6 °F 67.3 °F 30.17 in Calm   3.0 mph 99 % 0.00 in
08:07 67.8 °F 67.5 °F 30.17 in Calm   2.0 mph 99 % 0.00 in
08:12 68.0 °F 67.6 °F 30.18 in ESE 2.0 mph 3.0 mph 99 % 0.00 in
08:17 68.0 °F 67.6 °F 30.17 in SE 3.0 mph 3.0 mph 99 % 0.00 in
08:22 68.0 °F 67.6 °F 30.18 in Calm   6.0 mph 99 % 0.00 in
08:27 68.2 °F 67.8 °F 30.18 in South 1.0 mph 6.0 mph 99 % 0.00 in
08:32 68.4 °F 68.0 °F 30.18 in Calm   6.0 mph 99 % 0.00 in
08:37 68.4 °F 68.0 °F 30.18 in Calm   5.0 mph 99 % 0.00 in
08:42 68.4 °F 68.0 °F 30.18 in Calm   5.0 mph 99 % 0.00 in
08:47 68.4 °F 68.0 °F 30.18 in ENE 3.0 mph 5.0 mph 99 % 0.00 in
08:52 68.4 °F 68.0 °F 30.18 in East 2.0 mph 6.0 mph 99 % 0.00 in
08:57 68.5 °F 68.2 °F 30.18 in Calm   6.0 mph 99 % 0.00 in
09:02 68.7 °F 68.4 °F 30.18 in ESE 1.0 mph 6.0 mph 99 % 0.00 in
09:07 69.1 °F 68.7 °F 30.18 in ESE 2.0 mph 4.0 mph 99 % 0.00 in
09:12 69.3 °F 68.9 °F 30.18 in ENE 2.0 mph 4.0 mph 99 % 0.00 in
09:17 69.3 °F 68.9 °F 30.18 in ESE 3.0 mph 5.0 mph 99 % 0.00 in
09:22 69.3 °F 68.9 °F 30.18 in ESE 1.0 mph 5.0 mph 99 % 0.00 in
09:27 69.4 °F 69.1 °F 30.18 in East 2.0 mph 5.0 mph 99 % 0.00 in
09:32 69.6 °F 69.3 °F 30.18 in SE 1.0 mph 8.0 mph 99 % 0.00 in
09:37 70.0 °F 69.4 °F 30.18 in Calm   8.0 mph 98 % 0.00 in
09:42 70.5 °F 70.2 °F 30.18 in North 4.0 mph 8.0 mph 99 % 0.00 in
09:47 70.5 °F 69.6 °F 30.19 in East 1.0 mph 6.0 mph 97 % 0.00 in
09:52 71.2 °F 70.7 °F 30.19 in SE 2.0 mph 6.0 mph 98 % 0.00 in
09:57 71.8 °F 70.9 °F 30.19 in NNW 2.0 mph 6.0 mph 97 % 0.00 in
10:02 72.3 °F 70.5 °F 30.19 in SE 3.0 mph 6.0 mph 94 % 0.00 in
10:07 72.3 °F 69.8 °F 30.19 in Calm   7.0 mph 92 % 0.00 in
10:12 72.3 °F 69.6 °F 30.19 in Calm   7.0 mph 91 % 0.00 in
10:17 72.7 °F 69.6 °F 30.19 in Calm   7.0 mph 90 % 0.00 in
10:22 73.0 °F 69.6 °F 30.19 in ENE 3.0 mph 7.0 mph 89 % 0.00 in
10:27 73.8 °F 70.0 °F 30.19 in NNE 2.0 mph 7.0 mph 88 % 0.00 in
10:32 74.3 °F 69.8 °F 30.19 in East 5.0 mph 6.0 mph 86 % 0.00 in
10:37 74.7 °F 69.4 °F 30.19 in NE 6.0 mph 6.0 mph 84 % 0.00 in
10:42 75.0 °F 69.4 °F 30.19 in NW 2.0 mph 7.0 mph 83 % 0.00 in
10:47 75.6 °F 69.6 °F 30.19 in SE 5.0 mph 7.0 mph 82 % 0.00 in
10:52 75.6 °F 68.9 °F 30.19 in ENE 2.0 mph 7.0 mph 80 % 0.00 in
10:57 75.7 °F 68.4 °F 30.19 in SE 3.0 mph 6.0 mph 78 % 0.00 in
11:02 75.9 °F 68.2 °F 30.20 in NNW 1.0 mph 7.0 mph 77 % 0.00 in
11:07 76.1 °F 68.7 °F 30.20 in East 4.0 mph 7.0 mph 78 % 0.00 in
11:12 76.3 °F 69.3 °F 30.20 in East 4.0 mph 7.0 mph 79 % 0.00 in
11:18 76.5 °F 68.4 °F 30.20 in Calm   6.0 mph 76 % 0.00 in
11:23 76.8 °F 69.1 °F 30.20 in NE 1.0 mph 6.0 mph 77 % 0.00 in
11:28 77.5 °F 67.5 °F 30.21 in SE 2.0 mph 5.0 mph 71 % 0.00 in
11:33 77.5 °F 66.9 °F 30.21 in East 4.0 mph 7.0 mph 70 % 0.00 in
11:38 77.5 °F 68.2 °F 30.20 in Calm   7.0 mph 73 % 0.00 in
11:43 78.1 °F 68.7 °F 30.21 in East 2.0 mph 7.0 mph 73 % 0.00 in
11:48 78.6 °F 68.0 °F 30.20 in Calm   7.0 mph 70 % 0.00 in
11:53 79.0 °F 66.6 °F 30.21 in ENE 2.0 mph 6.0 mph 66 % 0.00 in
11:58 78.6 °F 66.7 °F 30.20 in SE 2.0 mph 7.0 mph 67 % 0.00 in
12:03 79.2 °F 68.2 °F 30.20 in ESE 1.0 mph 7.0 mph 69 % 0.00 in
12:08 80.1 °F 68.2 °F 30.20 in East 5.0 mph 7.0 mph 67 % 0.00 in
12:13 79.7 °F 65.1 °F 30.20 in ESE 5.0 mph 7.0 mph 61 % 0.00 in
12:18 78.6 °F 64.9 °F 30.20 in Calm   7.0 mph 63 % 0.00 in
12:23 78.4 °F 66.2 °F 30.20 in Calm   7.0 mph 66 % 0.00 in
12:28 78.6 °F 67.1 °F 30.19 in SSW 4.0 mph 6.0 mph 68 % 0.00 in
12:33 79.3 °F 66.6 °F 30.19 in SSE 3.0 mph 5.0 mph 65 % 0.00 in
12:38 80.1 °F 66.7 °F 30.19 in North 2.0 mph 7.0 mph 64 % 0.00 in
12:40 80.2 °F 66.9 °F 30.19 in ENE 3.0 mph 7.0 mph 64 % 0.00 in
12:45 80.4 °F 66.7 °F 30.19 in NNE 1.0 mph 7.0 mph 63 % 0.00 in
12:50 80.2 °F 66.0 °F 30.19 in SE 1.0 mph 7.0 mph 62 % 0.00 in
12:55 80.1 °F 63.9 °F 30.19 in East 6.0 mph 9.0 mph 58 % 0.00 in
13:00 80.1 °F 63.9 °F 30.18 in SE 1.0 mph 9.0 mph 58 % 0.00 in
13:05 80.4 °F 64.2 °F 30.18 in NE 4.0 mph 9.0 mph 58 % 0.00 in
13:10 80.4 °F 63.9 °F 30.18 in South 3.0 mph 9.0 mph 57 % 0.00 in
13:15 80.6 °F 64.4 °F 30.18 in Calm   10.0 mph 58 % 0.00 in
13:20 81.3 °F 64.0 °F 30.18 in Calm   10.0 mph 56 % 0.00 in
13:25 81.7 °F 64.4 °F 30.17 in ESE 3.0 mph 10.0 mph 56 % 0.00 in
13:30 82.0 °F 64.2 °F 30.17 in East 3.0 mph 9.0 mph 55 % 0.00 in
13:35 81.9 °F 63.0 °F 30.17 in SE 6.0 mph 9.0 mph 53 % 0.00 in
13:40 81.7 °F 62.4 °F 30.17 in SE 6.0 mph 10.0 mph 52 % 0.00 in
13:45 81.1 °F 61.9 °F 30.17 in SSE 4.0 mph 10.0 mph 52 % 0.00 in
13:50 81.5 °F 62.8 °F 30.17 in East 6.0 mph 10.0 mph 53 % 0.00 in
13:55 81.1 °F 62.4 °F 30.16 in ESE 2.0 mph 9.0 mph 53 % 0.00 in
14:00 81.1 °F 60.8 °F 30.16 in SE 1.0 mph 9.0 mph 50 % 0.00 in
14:05 81.7 °F 63.0 °F 30.16 in Calm   7.0 mph 53 % 0.00 in
14:10 82.0 °F 61.5 °F 30.15 in NNE 2.0 mph 9.0 mph 50 % 0.00 in
14:15 82.4 °F 61.3 °F 30.15 in SSE 5.0 mph 9.0 mph 49 % 0.00 in
14:20 81.9 °F 60.3 °F 30.15 in East 9.0 mph 11.0 mph 48 % 0.00 in
14:25 82.0 °F 61.0 °F 30.14 in SE 8.0 mph 12.0 mph 49 % 0.00 in
14:30 82.2 °F 60.6 °F 30.15 in SE 5.0 mph 12.0 mph 48 % 0.00 in
14:35 82.2 °F 61.7 °F 30.14 in ESE 4.0 mph 12.0 mph 50 % 0.00 in
14:40 82.6 °F 62.6 °F 30.14 in ESE 2.0 mph 12.0 mph 51 % 0.00 in
14:45 82.9 °F 61.2 °F 30.13 in SSE 7.0 mph 11.0 mph 48 % 0.00 in
14:50 83.1 °F 62.6 °F 30.13 in ESE 4.0 mph 11.0 mph 50 % 0.00 in
14:55 82.9 °F 60.1 °F 30.13 in ENE 5.0 mph 12.0 mph 46 % 0.00 in
15:00 82.8 °F 59.9 °F 30.12 in SE 4.0 mph 12.0 mph 46 % 0.00 in
15:05 82.6 °F 57.7 °F 30.12 in SE 7.0 mph 12.0 mph 43 % 0.00 in
15:10 82.9 °F 60.6 °F 30.12 in SSE 5.0 mph 12.0 mph 47 % 0.00 in
15:15 83.1 °F 60.3 °F 30.11 in ENE 8.0 mph 13.0 mph 46 % 0.00 in
15:20 83.3 °F 61.5 °F 30.11 in ESE 11.0 mph 14.0 mph 48 % 0.00 in
15:25 82.8 °F 61.0 °F 30.11 in East 8.0 mph 15.0 mph 48 % 0.00 in
15:30 82.2 °F 61.7 °F 30.11 in SE 4.0 mph 15.0 mph 50 % 0.00 in
15:35 82.6 °F 61.0 °F 30.10 in ESE 7.0 mph 15.0 mph 48 % 0.00 in
15:41 82.9 °F 62.4 °F 30.10 in ESE 11.0 mph 13.0 mph 50 % 0.00 in
15:46 82.8 °F 62.8 °F 30.09 in SSE 7.0 mph 12.0 mph 51 % 0.00 in
15:51 82.4 °F 62.4 °F 30.09 in East 5.0 mph 14.0 mph 51 % 0.00 in
15:56 82.2 °F 62.8 °F 30.09 in East 4.0 mph 14.0 mph 52 % 0.00 in
16:01 82.0 °F 62.1 °F 30.09 in SSE 3.0 mph 14.0 mph 51 % 0.00 in
16:06 82.2 °F 60.6 °F 30.09 in East 4.0 mph 15.0 mph 48 % 0.00 in
16:11 82.0 °F 62.1 °F 30.09 in SE 7.0 mph 15.0 mph 51 % 0.00 in
16:16 82.2 °F 61.7 °F 30.09 in East 7.0 mph 15.0 mph 50 % 0.00 in
16:21 82.2 °F 61.2 °F 30.09 in WSW 3.0 mph 14.0 mph 49 % 0.00 in
16:26 81.7 °F 61.9 °F 30.08 in NNE 1.0 mph 12.0 mph 51 % 0.00 in
16:31 81.3 °F 61.5 °F 30.08 in SSE 8.0 mph 14.0 mph 51 % 0.00 in
16:36 81.1 °F 61.9 °F 30.08 in SSE 9.0 mph 16.0 mph 52 % 0.00 in
16:41 81.1 °F 60.1 °F 30.08 in SE 5.0 mph 16.0 mph 49 % 0.00 in
16:46 81.1 °F 59.5 °F 30.08 in ESE 11.0 mph 16.0 mph 48 % 0.00 in
16:51 81.1 °F 60.1 °F 30.08 in SSE 10.0 mph 16.0 mph 49 % 0.00 in
16:56 81.1 °F 60.8 °F 30.08 in SE 6.0 mph 16.0 mph 50 % 0.00 in
17:01 81.1 °F 60.1 °F 30.08 in SE 4.0 mph 16.0 mph 49 % 0.00 in
17:06 81.3 °F 61.0 °F 30.07 in SE 7.0 mph 15.0 mph 50 % 0.00 in
17:11 81.1 °F 59.5 °F 30.08 in ESE 7.0 mph 16.0 mph 48 % 0.00 in
17:16 81.3 °F 61.0 °F 30.08 in SE 5.0 mph 16.0 mph 50 % 0.00 in
17:21 81.3 °F 61.5 °F 30.08 in East 8.0 mph 16.0 mph 51 % 0.00 in
17:26 81.1 °F 61.3 °F 30.08 in East 6.0 mph 14.0 mph 51 % 0.00 in
17:31 80.8 °F 61.5 °F 30.08 in SE 5.0 mph 16.0 mph 52 % 0.00 in
17:36 80.4 °F 61.2 °F 30.07 in South 6.0 mph 16.0 mph 52 % 0.00 in
17:41 80.1 °F 60.8 °F 30.07 in ESE 9.0 mph 16.0 mph 52 % 0.00 in
17:46 79.7 °F 61.5 °F 30.07 in SE 4.0 mph 15.0 mph 54 % 0.00 in
17:47 79.5 °F 61.3 °F 30.07 in ESE 6.0 mph 15.0 mph 54 % 0.00 in
17:52 79.9 °F 62.2 °F 30.07 in SE 7.0 mph 15.0 mph 55 % 0.00 in
17:57 79.7 °F 62.1 °F 30.07 in South 5.0 mph 14.0 mph 55 % 0.00 in
18:02 79.5 °F 61.9 °F 30.07 in ESE 5.0 mph 14.0 mph 55 % 0.00 in
18:07 79.5 °F 62.4 °F 30.07 in SE 7.0 mph 14.0 mph 56 % 0.00 in
18:12 79.5 °F 63.0 °F 30.08 in ESE 6.0 mph 13.0 mph 57 % 0.00 in
18:17 79.7 °F 63.1 °F 30.08 in SE 4.0 mph 13.0 mph 57 % 0.00 in
18:22 79.5 °F 61.3 °F 30.08 in ENE 8.0 mph 13.0 mph 54 % 0.00 in
18:27 79.2 °F 62.1 °F 30.08 in SE 5.0 mph 13.0 mph 56 % 0.00 in
18:32 79.2 °F 62.1 °F 30.08 in ENE 8.0 mph 13.0 mph 56 % 0.00 in
18:37 79.0 °F 63.0 °F 30.08 in ESE 7.0 mph 13.0 mph 58 % 0.00 in
18:42 78.6 °F 62.1 °F 30.08 in SSE 5.0 mph 13.0 mph 57 % 0.00 in
18:47 78.4 °F 61.5 °F 30.08 in SE 7.0 mph 14.0 mph 56 % 0.00 in
18:52 78.4 °F 62.4 °F 30.08 in SE 5.0 mph 14.0 mph 58 % 0.00 in
18:58 78.3 °F 62.2 °F 30.08 in SE 3.0 mph 14.0 mph 58 % 0.00 in
19:03 78.1 °F 62.6 °F 30.08 in SSE 5.0 mph 11.0 mph 59 % 0.00 in
19:08 78.1 °F 63.1 °F 30.09 in South 4.0 mph 10.0 mph 60 % 0.00 in
19:13 77.7 °F 62.2 °F 30.08 in East 5.0 mph 10.0 mph 59 % 0.00 in
19:18 77.2 °F 62.2 °F 30.09 in ESE 9.0 mph 10.0 mph 60 % 0.00 in
19:23 77.0 °F 62.1 °F 30.09 in SE 4.0 mph 10.0 mph 60 % 0.00 in
19:28 76.6 °F 62.2 °F 30.09 in SE 4.0 mph 10.0 mph 61 % 0.00 in
19:33 76.5 °F 62.4 °F 30.09 in East 9.0 mph 10.0 mph 62 % 0.00 in
19:38 76.1 °F 62.6 °F 30.09 in SE 4.0 mph 10.0 mph 63 % 0.00 in
19:43 75.7 °F 62.8 °F 30.09 in East 7.0 mph 10.0 mph 64 % 0.00 in
19:48 75.6 °F 62.6 °F 30.09 in ENE 3.0 mph 12.0 mph 64 % 0.00 in
19:53 75.2 °F 62.2 °F 30.09 in ESE 10.0 mph 12.0 mph 64 % 0.00 in
19:58 74.8 °F 62.2 °F 30.09 in ESE 2.0 mph 12.0 mph 65 % 0.00 in
20:03 74.7 °F 62.6 °F 30.09 in SE 4.0 mph 12.0 mph 66 % 0.00 in
20:08 74.5 °F 62.8 °F 30.09 in ESE 2.0 mph 11.0 mph 67 % 0.00 in
20:13 74.1 °F 63.0 °F 30.09 in East 8.0 mph 11.0 mph 68 % 0.00 in
20:18 73.8 °F 63.0 °F 30.09 in SSE 6.0 mph 10.0 mph 69 % 0.00 in
20:23 73.6 °F 63.7 °F 30.09 in SE 1.0 mph 8.0 mph 71 % 0.00 in
20:28 73.2 °F 63.7 °F 30.09 in SE 6.0 mph 8.0 mph 72 % 0.00 in
20:33 73.0 °F 63.9 °F 30.09 in ESE 3.0 mph 8.0 mph 73 % 0.00 in
20:38 73.0 °F 63.9 °F 30.09 in East 2.0 mph 8.0 mph 73 % 0.00 in
20:43 72.9 °F 64.0 °F 30.10 in ESE 4.0 mph 9.0 mph 74 % 0.00 in
20:48 72.7 °F 64.2 °F 30.10 in SE 3.0 mph 9.0 mph 75 % 0.00 in
20:53 72.5 °F 64.6 °F 30.10 in SE 1.0 mph 9.0 mph 76 % 0.00 in
20:58 72.3 °F 64.8 °F 30.10 in SE 5.0 mph 7.0 mph 77 % 0.00 in
21:03 72.1 °F 64.9 °F 30.10 in South 3.0 mph 7.0 mph 78 % 0.00 in
21:08 72.0 °F 64.8 °F 30.10 in ESE 4.0 mph 7.0 mph 78 % 0.00 in
21:13 72.0 °F 65.1 °F 30.10 in SSE 1.0 mph 9.0 mph 79 % 0.00 in
21:18 71.8 °F 64.9 °F 30.10 in ESE 3.0 mph 9.0 mph 79 % 0.00 in
21:23 71.6 °F 65.1 °F 30.10 in SSE 1.0 mph 9.0 mph 80 % 0.00 in
21:28 71.4 °F 64.9 °F 30.10 in SE 3.0 mph 7.0 mph 80 % 0.00 in
21:33 71.2 °F 65.1 °F 30.10 in ESE 2.0 mph 8.0 mph 81 % 0.00 in
21:38 71.2 °F 65.1 °F 30.11 in SE 2.0 mph 8.0 mph 81 % 0.00 in
21:43 71.1 °F 64.9 °F 30.11 in ESE 1.0 mph 8.0 mph 81 % 0.00 in
21:48 70.9 °F 65.1 °F 30.11 in ESE 1.0 mph 7.0 mph 82 % 0.00 in
21:53 70.9 °F 65.1 °F 30.11 in SE 2.0 mph 7.0 mph 82 % 0.00 in
21:58 70.7 °F 64.9 °F 30.11 in East 3.0 mph 5.0 mph 82 % 0.00 in
22:03 70.5 °F 64.8 °F 30.11 in SE 1.0 mph 7.0 mph 82 % 0.00 in
22:08 70.5 °F 65.1 °F 30.11 in South 1.0 mph 7.0 mph 83 % 0.00 in
22:13 70.3 °F 64.9 °F 30.12 in ESE 2.0 mph 7.0 mph 83 % 0.00 in
22:18 70.2 °F 64.8 °F 30.12 in SE 2.0 mph 5.0 mph 83 % 0.00 in
22:23 70.2 °F 65.1 °F 30.12 in SE 1.0 mph 5.0 mph 84 % 0.00 in
22:28 70.0 °F 64.9 °F 30.12 in ESE 2.0 mph 4.0 mph 84 % 0.00 in
22:33 70.0 °F 64.9 °F 30.12 in SE 1.0 mph 4.0 mph 84 % 0.00 in
22:38 69.8 °F 64.8 °F 30.12 in Calm   3.0 mph 84 % 0.00 in
22:43 69.4 °F 64.4 °F 30.12 in Calm   3.0 mph 84 % 0.00 in
22:48 69.1 °F 64.4 °F 30.12 in Calm   2.0 mph 85 % 0.00 in
22:49 68.9 °F 64.2 °F 30.12 in Calm   2.0 mph 85 % 0.00 in
22:54 68.4 °F 63.7 °F 30.12 in Calm   1.0 mph 85 % 0.00 in
22:59 67.8 °F 63.5 °F 30.12 in Calm   1.0 mph 86 % 0.00 in
23:04 67.5 °F 63.5 °F 30.12 in Calm     87 % 0.00 in
23:09 67.3 °F 63.7 °F 30.12 in ESE 1.0 mph   88 % 0.00 in
23:14 67.1 °F 63.7 °F 30.12 in Calm   1.0 mph 89 % 0.00 in
23:19 66.9 °F 63.5 °F 30.12 in Calm   1.0 mph 89 % 0.00 in
23:24 66.7 °F 63.7 °F 30.12 in Calm   1.0 mph 90 % 0.00 in
23:29 66.6 °F 63.5 °F 30.12 in Calm     90 % 0.00 in
23:34 66.4 °F 63.7 °F 30.12 in Calm     91 % 0.00 in
23:39 66.2 °F 63.5 °F 30.12 in Calm   1.0 mph 91 % 0.00 in
23:44 66.0 °F 63.7 °F 30.12 in Calm   1.0 mph 92 % 0.00 in
23:49 66.0 °F 63.3 °F 30.12 in Calm   1.0 mph 91 % 0.00 in
23:54 65.8 °F 63.1 °F 30.12 in Calm     91 % 0.00 in
23:59 65.7 °F 63.3 °F 30.12 in Calm     92 % 0.00 in
Spring, Texas: Villages of Bridgestone
Compliments of Weather Underground - 2.75 mb

Script developed by  Jim McMurry - jmcmurry@mwt.net Adapted for the template by  Wim van der Kuil - Leuven-Template.eu

You find our weather info also at:

UK Metoffice

WeatherCloud

Weather Underground

Mid-South Weather Network

AWEKAS

Citizen Weather Observer Program (CWOP)

HAMweather, WeatherForYou, PWS Weather

Equipment we use:

Weather-station
Davis Vantage Vue

Weather-program
Meteohub

Weather-server
Debian 7.9 x86 (Guest)

Provider
DreamHost

Davis Vantage Vue

Meteohub

Debian 7.9 x86 (Guest)

DreamHost